createdAt,value
2022-10-07T00:00:52.356Z,25.20
2022-10-07T00:03:20.301Z,29.37
2022-10-07T00:05:47.469Z,27.57
2022-10-07T00:08:14.923Z,25.07
2022-10-07T00:10:43.148Z,25.67
2022-10-07T00:13:12.047Z,24.43
2022-10-07T00:15:39.399Z,26.53
2022-10-07T00:18:06.507Z,31.00
2022-10-07T00:20:39.897Z,30.77
2022-10-07T00:23:09.361Z,26.63
2022-10-07T00:25:39.929Z,25.23
2022-10-07T00:28:07.249Z,25.87
2022-10-07T00:30:34.419Z,26.83
2022-10-07T00:33:01.596Z,27.83
2022-10-07T00:35:28.741Z,29.30
2022-10-07T00:37:55.904Z,25.40
2022-10-07T00:40:23.026Z,27.60
2022-10-07T00:42:50.112Z,29.53
2022-10-07T00:45:19.381Z,29.50
2022-10-07T00:47:47.842Z,25.83
2022-10-07T00:50:18.377Z,25.57
2022-10-07T00:52:47.976Z,23.83
2022-10-07T00:55:17.981Z,26.33
2022-10-07T00:57:45.622Z,25.23
2022-10-07T01:00:13.640Z,23.30
2022-10-07T01:02:40.962Z,26.13
2022-10-07T01:05:09.656Z,25.97
2022-10-07T01:07:38.164Z,28.17
2022-10-07T01:10:06.035Z,26.73
2022-10-07T01:12:36.254Z,27.37
2022-10-07T01:15:07.068Z,27.73
2022-10-07T01:17:47.060Z,27.33
2022-10-07T01:20:15.110Z,23.83
2022-10-07T01:22:45.054Z,29.40
2022-10-07T01:25:12.525Z,26.07
2022-10-07T01:27:41.601Z,28.27
2022-10-07T01:30:09.466Z,30.17
2022-10-07T01:32:44.543Z,25.53
2022-10-07T01:35:18.175Z,22.80
2022-10-07T01:37:48.468Z,21.40
2022-10-07T01:40:17.630Z,22.23
2022-10-07T01:42:45.758Z,25.87
2022-10-07T01:45:14.210Z,27.87
2022-10-07T01:47:41.518Z,26.43
2022-10-07T01:50:15.682Z,29.90
2022-10-07T01:52:43.075Z,30.63
2022-10-07T01:55:19.635Z,27.17
2022-10-07T01:57:53.915Z,29.50
2022-10-07T02:00:21.161Z,25.43
2022-10-07T02:02:51.259Z,29.17
2022-10-07T02:05:21.330Z,28.33
2022-10-07T02:07:56.183Z,24.13
2022-10-07T02:10:37.282Z,31.27
2022-10-07T02:13:20.059Z,22.93
2022-10-07T02:15:54.799Z,31.60
2022-10-07T02:18:21.972Z,26.20
2022-10-07T02:20:51.939Z,25.93
2022-10-07T02:23:20.411Z,27.63
2022-10-07T02:25:49.119Z,27.53
2022-10-07T02:28:18.050Z,30.80
2022-10-07T02:30:46.997Z,26.57
2022-10-07T02:33:15.030Z,27.03
2022-10-07T02:35:54.771Z,29.10
2022-10-07T02:38:22.336Z,26.37
2022-10-07T02:41:13.510Z,29.77
2022-10-07T02:43:46.370Z,28.57
2022-10-07T02:46:20.259Z,30.17
2022-10-07T02:48:52.371Z,26.33
2022-10-07T02:51:21.519Z,21.87
2022-10-07T02:53:50.771Z,29.63
2022-10-07T02:56:20.643Z,27.07
2022-10-07T02:58:48.187Z,28.73
2022-10-07T03:01:18.062Z,27.60
2022-10-07T03:03:45.798Z,29.17
2022-10-07T03:06:19.239Z,24.40
2022-10-07T03:08:47.930Z,25.23
2022-10-07T03:11:15.073Z,23.23
2022-10-07T03:13:42.122Z,26.17
2022-10-07T03:16:09.217Z,23.03
2022-10-07T03:18:36.312Z,22.93
2022-10-07T03:21:04.115Z,23.67
2022-10-07T03:23:31.263Z,26.13
2022-10-07T03:25:59.412Z,28.50
2022-10-07T03:28:27.418Z,32.00
2022-10-07T03:30:54.676Z,27.53
2022-10-07T03:33:26.697Z,26.27
2022-10-07T03:35:53.908Z,29.87
2022-10-07T03:38:21.385Z,30.80
2022-10-07T03:40:49.300Z,31.87
2022-10-07T03:43:16.405Z,23.03
2022-10-07T03:45:44.302Z,31.43
2022-10-07T03:48:11.574Z,26.97
2022-10-07T03:50:38.642Z,28.03
2022-10-07T03:53:05.776Z,27.07
2022-10-07T03:55:32.868Z,25.00
2022-10-07T03:58:00.052Z,29.77
2022-10-07T04:00:27.619Z,24.20
2022-10-07T04:02:54.756Z,25.83
2022-10-07T04:05:22.774Z,26.87
2022-10-07T04:07:52.173Z,22.27
2022-10-07T04:10:19.894Z,24.23
2022-10-07T04:12:51.331Z,25.50
2022-10-07T04:15:18.826Z,21.13
2022-10-07T04:17:46.960Z,27.03
2022-10-07T04:20:15.113Z,22.50
2022-10-07T04:22:42.489Z,24.67
2022-10-07T04:25:30.798Z,24.00
2022-10-07T04:27:59.746Z,20.70
2022-10-07T04:30:28.419Z,27.40
2022-10-07T04:32:55.585Z,31.20
2022-10-07T04:35:23.474Z,24.70
2022-10-07T04:37:51.239Z,25.87
2022-10-07T04:40:19.880Z,26.40
2022-10-07T04:43:06.091Z,29.67
2022-10-07T04:45:34.087Z,27.10
2022-10-07T04:48:01.961Z,28.17
2022-10-07T04:50:29.127Z,27.87
2022-10-07T04:52:56.192Z,25.43
2022-10-07T04:55:23.276Z,26.40
2022-10-07T04:57:50.398Z,26.13
2022-10-07T05:00:17.555Z,25.17
2022-10-07T05:02:50.428Z,29.20
2022-10-07T05:05:18.040Z,25.33
2022-10-07T05:07:50.107Z,25.70
2022-10-07T05:10:17.384Z,25.60
2022-10-07T05:12:44.459Z,28.33
2022-10-07T05:15:11.609Z,31.03
2022-10-07T05:17:41.114Z,19.70
2022-10-07T05:20:12.385Z,31.30
2022-10-07T05:22:39.754Z,27.50
2022-10-07T05:25:07.120Z,26.53
2022-10-07T05:27:34.195Z,26.70
2022-10-07T05:30:01.270Z,27.73
2022-10-07T05:32:28.465Z,25.10
2022-10-07T05:34:55.545Z,33.50
2022-10-07T05:37:22.604Z,26.77
2022-10-07T05:39:49.680Z,28.80
2022-10-07T05:42:16.808Z,24.47
2022-10-07T05:44:43.971Z,24.37
2022-10-07T05:47:11.071Z,23.27
2022-10-07T05:49:38.172Z,28.67
2022-10-07T05:52:06.328Z,27.80
2022-10-07T05:54:33.833Z,31.03
2022-10-07T05:57:00.900Z,32.37
2022-10-07T05:59:27.982Z,32.33
2022-10-07T06:02:00.212Z,29.20
2022-10-07T06:04:27.682Z,26.53
2022-10-07T06:06:54.786Z,26.63
2022-10-07T06:09:40.760Z,28.30
2022-10-07T06:12:29.053Z,28.17
2022-10-07T06:14:56.181Z,28.67
2022-10-07T06:17:23.253Z,30.70
2022-10-07T06:19:50.334Z,28.50
2022-10-07T06:22:17.431Z,31.73
2022-10-07T06:24:45.278Z,27.53
2022-10-07T06:27:12.346Z,25.60
2022-10-07T06:29:39.733Z,28.80
2022-10-07T06:32:06.950Z,24.73
2022-10-07T06:34:34.037Z,36.90
2022-10-07T06:37:01.137Z,25.83
2022-10-07T06:39:28.220Z,29.33
2022-10-07T06:41:57.163Z,28.90
2022-10-07T06:44:24.248Z,24.17
2022-10-07T06:46:51.529Z,26.33
2022-10-07T06:49:18.629Z,26.33
2022-10-07T06:51:46.873Z,25.37
2022-10-07T06:54:13.949Z,26.13
2022-10-07T06:56:41.080Z,26.77
2022-10-07T06:59:08.137Z,27.37
2022-10-07T07:01:35.286Z,32.03
2022-10-07T07:04:02.489Z,24.93
2022-10-07T07:06:29.562Z,27.30
2022-10-07T07:09:00.191Z,26.50
2022-10-07T07:11:36.856Z,25.03
2022-10-07T07:14:07.719Z,25.23
2022-10-07T07:16:35.682Z,26.30
2022-10-07T07:19:05.448Z,27.77
2022-10-07T07:21:34.491Z,25.53
2022-10-07T07:24:02.302Z,30.93
2022-10-07T07:26:30.148Z,26.93
2022-10-07T07:28:59.943Z,27.10
2022-10-07T07:31:28.942Z,27.20
2022-10-07T07:33:56.894Z,22.57
2022-10-07T07:36:25.482Z,25.77
2022-10-07T07:38:53.783Z,27.80
2022-10-07T07:41:21.804Z,31.37
2022-10-07T07:43:50.468Z,26.17
2022-10-07T07:46:18.158Z,22.33
2022-10-07T07:48:46.408Z,29.00
2022-10-07T07:51:15.839Z,24.50
2022-10-07T07:53:42.956Z,26.57
2022-10-07T07:56:10.440Z,23.70
2022-10-07T07:58:37.523Z,20.77
2022-10-07T08:01:09.069Z,21.77
2022-10-07T08:03:37.472Z,20.00
2022-10-07T08:06:08.253Z,21.30
2022-10-07T08:08:35.385Z,21.77
2022-10-07T08:11:08.440Z,28.77
2022-10-07T08:13:36.503Z,27.07
2022-10-07T08:16:04.964Z,22.60
2022-10-07T08:18:32.469Z,26.13
2022-10-07T08:21:00.572Z,28.17
2022-10-07T08:23:29.344Z,27.10
2022-10-07T08:25:59.696Z,24.67
2022-10-07T08:28:27.526Z,18.27
2022-10-07T08:30:55.365Z,21.93
2022-10-07T08:33:22.918Z,25.53
2022-10-07T08:35:51.049Z,25.60
2022-10-07T08:38:18.501Z,24.10
2022-10-07T08:40:53.064Z,22.83
2022-10-07T08:43:22.359Z,23.00
2022-10-07T08:45:49.518Z,24.17
2022-10-07T08:48:18.838Z,25.70
2022-10-07T08:50:58.212Z,21.97
2022-10-07T08:53:30.585Z,28.83
2022-10-07T08:56:07.080Z,27.17
2022-10-07T08:58:35.108Z,24.60
2022-10-07T09:01:34.423Z,23.70
2022-10-07T09:04:20.519Z,26.03
2022-10-07T09:06:55.367Z,17.97
2022-10-07T09:09:33.770Z,28.27
2022-10-07T09:12:02.858Z,25.70
2022-10-07T09:14:31.899Z,23.90
2022-10-07T09:17:02.560Z,24.33
2022-10-07T09:19:32.327Z,24.87
2022-10-07T09:22:19.382Z,31.23
2022-10-07T09:24:47.473Z,27.77
2022-10-07T09:27:16.151Z,25.07
2022-10-07T09:29:43.495Z,24.53
2022-10-07T09:32:13.862Z,24.73
2022-10-07T09:34:41.154Z,21.00
2022-10-07T09:37:12.978Z,28.67
2022-10-07T09:39:40.554Z,24.47
2022-10-07T09:42:09.192Z,23.87
2022-10-07T09:44:37.221Z,28.53
2022-10-07T09:47:27.708Z,22.43
2022-10-07T09:49:56.522Z,26.53
2022-10-07T09:52:24.779Z,22.23
2022-10-07T09:54:52.946Z,29.30
2022-10-07T09:57:35.990Z,28.03
2022-10-07T10:00:15.467Z,28.57
2022-10-07T10:02:46.194Z,20.70
2022-10-07T10:05:20.945Z,21.40
2022-10-07T10:07:53.156Z,26.17
2022-10-07T10:10:24.374Z,32.53
2022-10-07T10:12:52.956Z,22.40
2022-10-07T10:15:39.474Z,25.60
2022-10-07T10:18:25.934Z,22.50
2022-10-07T10:20:53.087Z,24.43
2022-10-07T10:23:37.174Z,27.57
2022-10-07T10:26:22.827Z,23.90
2022-10-07T10:29:08.200Z,26.93
2022-10-07T10:31:41.270Z,22.20
2022-10-07T10:34:17.263Z,26.13
2022-10-07T10:36:46.659Z,24.97
2022-10-07T10:39:21.597Z,21.70
2022-10-07T10:41:54.963Z,22.30
2022-10-07T10:44:37.806Z,22.43
2022-10-07T10:47:16.649Z,21.27
2022-10-07T10:50:04.266Z,23.53
2022-10-07T10:52:37.470Z,21.83
2022-10-07T10:55:13.689Z,20.33
2022-10-07T10:58:00.626Z,21.43
2022-10-07T11:00:31.201Z,18.60
2022-10-07T11:03:04.538Z,22.77
2022-10-07T11:05:34.484Z,22.13
2022-10-07T11:08:15.419Z,22.23
2022-10-07T11:10:46.472Z,22.17
2022-10-07T11:13:35.268Z,18.57
2022-10-07T11:16:08.995Z,23.70
2022-10-07T11:18:39.636Z,27.50
2022-10-07T11:21:09.040Z,23.33
2022-10-07T11:23:46.749Z,29.93
2022-10-07T11:26:19.351Z,21.13
2022-10-07T11:28:47.607Z,24.07
2022-10-07T11:31:33.625Z,24.23
2022-10-07T11:34:00.742Z,21.60
2022-10-07T11:36:30.699Z,24.53
2022-10-07T11:38:57.786Z,23.47
2022-10-07T11:41:46.752Z,26.87
2022-10-07T11:44:20.489Z,28.30
2022-10-07T11:46:48.419Z,22.90
2022-10-07T11:49:22.034Z,19.77
2022-10-07T11:51:54.460Z,24.37
2022-10-07T11:54:23.578Z,21.30
2022-10-07T11:56:52.031Z,22.13
2022-10-07T11:59:37.940Z,26.47
2022-10-07T12:02:06.236Z,20.63
2022-10-07T12:04:36.492Z,25.83
2022-10-07T12:07:22.474Z,24.50
2022-10-07T12:10:07.837Z,22.97
2022-10-07T12:12:47.433Z,28.77
2022-10-07T12:15:23.979Z,25.97
2022-10-07T12:18:11.336Z,24.07
2022-10-07T12:20:45.462Z,22.63
2022-10-07T12:23:32.493Z,25.67
2022-10-07T12:26:00.813Z,24.70
2022-10-07T12:28:28.209Z,20.13
2022-10-07T12:31:00.180Z,27.77
2022-10-07T12:33:43.223Z,25.40
2022-10-07T12:36:20.892Z,26.03
2022-10-07T12:38:57.358Z,28.33
2022-10-07T12:41:28.494Z,22.90
2022-10-07T12:44:14.302Z,24.13
2022-10-07T12:46:41.412Z,27.00
2022-10-07T12:49:27.478Z,26.97
2022-10-07T12:51:55.263Z,22.97
2022-10-07T12:54:31.974Z,23.60
2022-10-07T12:56:59.418Z,27.23
2022-10-07T12:59:48.454Z,22.67
2022-10-07T13:02:34.292Z,22.50
2022-10-07T13:05:19.909Z,21.93
2022-10-07T13:08:06.776Z,23.47
2022-10-07T13:10:54.098Z,25.20
2022-10-07T13:13:21.214Z,28.37
2022-10-07T13:15:56.543Z,24.17
2022-10-07T13:18:34.184Z,22.90
2022-10-07T13:21:01.464Z,22.87
2022-10-07T13:23:30.204Z,17.97
2022-10-07T13:25:59.881Z,22.43
2022-10-07T13:28:45.356Z,25.70
2022-10-07T13:31:18.040Z,23.00
2022-10-07T13:33:45.331Z,25.00
2022-10-07T13:36:20.506Z,24.27
2022-10-07T13:38:48.572Z,23.97
2022-10-07T13:41:21.291Z,22.07
2022-10-07T13:43:52.541Z,15.70
2022-10-07T13:46:19.842Z,16.10
2022-10-07T13:48:48.938Z,22.97
2022-10-07T13:51:24.243Z,24.03
2022-10-07T13:53:53.144Z,22.67
2022-10-07T13:56:47.604Z,22.83
2022-10-07T13:59:18.525Z,21.97
2022-10-07T14:01:47.060Z,21.23
2022-10-07T14:04:19.952Z,23.73
2022-10-07T14:07:00.798Z,23.13
2022-10-07T14:09:41.821Z,28.67
2022-10-07T14:12:12.244Z,22.33
2022-10-07T14:14:41.526Z,20.33
2022-10-07T14:17:24.704Z,23.40
2022-10-07T14:19:54.023Z,21.70
2022-10-07T14:22:25.981Z,21.90
2022-10-07T14:24:54.236Z,19.87
2022-10-07T14:27:59.834Z,16.17
2022-10-07T14:30:28.215Z,21.93
2022-10-07T14:33:30.841Z,21.37
2022-10-07T14:36:15.189Z,20.50
2022-10-07T14:38:43.188Z,19.13
2022-10-07T14:41:10.702Z,28.67
2022-10-07T14:43:39.830Z,18.23
2022-10-07T14:46:11.991Z,24.23
2022-10-07T14:48:39.159Z,27.90
2022-10-07T14:51:06.429Z,22.03
2022-10-07T14:53:34.096Z,20.90
2022-10-07T14:56:01.232Z,23.30
2022-10-07T14:58:29.230Z,19.53
2022-10-07T15:00:56.359Z,20.27
2022-10-07T15:03:24.314Z,22.60
2022-10-07T15:05:51.561Z,20.20
2022-10-07T15:08:18.711Z,26.43
2022-10-07T15:10:46.185Z,25.13
2022-10-07T15:13:14.275Z,23.80
2022-10-07T15:15:42.626Z,23.83
2022-10-07T15:18:11.504Z,21.97
2022-10-07T15:20:39.509Z,22.20
2022-10-07T15:23:07.659Z,21.00
2022-10-07T15:25:35.383Z,21.37
2022-10-07T15:28:02.664Z,22.03
2022-10-07T15:30:30.421Z,25.23
2022-10-07T15:32:58.250Z,27.27
2022-10-07T15:35:31.180Z,22.43
2022-10-07T15:37:58.298Z,21.30
2022-10-07T15:40:25.674Z,24.50
2022-10-07T15:42:52.825Z,24.03
2022-10-07T15:45:19.909Z,21.13
2022-10-07T15:47:47.003Z,20.57
2022-10-07T15:50:15.347Z,24.00
2022-10-07T15:52:42.446Z,21.30
2022-10-07T15:55:09.604Z,25.30
2022-10-07T15:57:36.687Z,24.83
2022-10-07T16:00:04.905Z,20.53
2022-10-07T16:02:34.137Z,23.60
2022-10-07T16:05:01.318Z,24.63
2022-10-07T16:07:29.075Z,27.17
2022-10-07T16:09:56.174Z,22.27
2022-10-07T16:12:23.282Z,27.70
2022-10-07T16:14:51.974Z,25.50
2022-10-07T16:17:19.031Z,26.07
2022-10-07T16:19:46.308Z,18.90
2022-10-07T16:22:13.388Z,19.83
2022-10-07T16:24:42.152Z,22.47
2022-10-07T16:27:09.278Z,16.80
2022-10-07T16:29:54.987Z,25.07
2022-10-07T16:32:22.129Z,25.43
2022-10-07T16:34:49.488Z,23.07
2022-10-07T16:37:16.668Z,25.30
2022-10-07T16:39:43.839Z,25.17
2022-10-07T16:42:10.954Z,21.13
2022-10-07T16:44:38.760Z,25.37
2022-10-07T16:47:06.168Z,29.83
2022-10-07T16:49:36.296Z,22.87
2022-10-07T16:52:03.602Z,21.00
2022-10-07T16:54:31.916Z,22.73
2022-10-07T16:56:59.075Z,22.27
2022-10-07T16:59:26.343Z,23.57
2022-10-07T17:01:55.544Z,19.10
2022-10-07T17:04:23.067Z,18.87
2022-10-07T17:06:50.277Z,22.27
2022-10-07T17:09:18.478Z,28.03
2022-10-07T17:11:46.340Z,23.23
2022-10-07T17:14:17.198Z,26.07
2022-10-07T17:16:45.667Z,23.60
2022-10-07T17:19:14.142Z,22.87
2022-10-07T17:21:42.641Z,25.77
2022-10-07T17:24:10.366Z,26.23
2022-10-07T17:26:37.960Z,27.60
2022-10-07T17:29:09.750Z,22.93
2022-10-07T17:31:39.171Z,27.47
2022-10-07T17:34:06.953Z,23.90
2022-10-07T17:36:34.362Z,22.30
2022-10-07T17:39:01.485Z,21.80
2022-10-07T17:41:29.530Z,18.23
2022-10-07T17:43:57.550Z,22.00
2022-10-07T17:46:26.032Z,19.87
2022-10-07T17:48:55.691Z,21.10
2022-10-07T17:51:24.336Z,24.27
2022-10-07T17:53:52.581Z,18.47
2022-10-07T17:56:20.150Z,18.03
2022-10-07T17:58:47.932Z,17.03
2022-10-07T18:01:23.979Z,18.63
2022-10-07T18:04:11.666Z,22.67
2022-10-07T18:06:39.519Z,21.83
2022-10-07T18:09:07.659Z,21.13
2022-10-07T18:11:53.938Z,21.23
2022-10-07T18:14:39.725Z,24.63
2022-10-07T18:17:07.741Z,24.27
2022-10-07T18:19:35.434Z,24.83
2022-10-07T18:22:02.992Z,20.87
2022-10-07T18:24:30.273Z,20.03
2022-10-07T18:26:59.208Z,19.43
2022-10-07T18:29:30.122Z,26.87
2022-10-07T18:31:57.391Z,25.70
2022-10-07T18:34:24.934Z,22.33
2022-10-07T18:36:56.245Z,21.20
2022-10-07T18:39:23.938Z,22.60
2022-10-07T18:41:51.251Z,23.07
2022-10-07T18:44:18.324Z,19.83
2022-10-07T18:46:45.651Z,24.53
2022-10-07T18:49:13.797Z,22.93
2022-10-07T18:51:41.368Z,23.07
2022-10-07T18:54:08.526Z,24.07
2022-10-07T18:56:39.943Z,22.17
2022-10-07T18:59:08.681Z,24.67
2022-10-07T19:01:37.283Z,25.00
2022-10-07T19:04:04.736Z,22.57
2022-10-07T19:06:32.759Z,21.47
2022-10-07T19:09:01.149Z,21.30
2022-10-07T19:11:30.415Z,20.03
2022-10-07T19:13:59.147Z,23.27
2022-10-07T19:16:29.151Z,23.13
2022-10-07T19:18:57.174Z,24.27
2022-10-07T19:21:24.419Z,21.37
2022-10-07T19:23:54.654Z,22.80
2022-10-07T19:26:23.074Z,21.00
2022-10-07T19:28:50.840Z,20.83
2022-10-07T19:31:18.105Z,18.63
2022-10-07T19:33:46.147Z,19.37
2022-10-07T19:36:14.199Z,22.23
2022-10-07T19:38:45.928Z,20.40
2022-10-07T19:41:14.557Z,23.07
2022-10-07T19:43:42.354Z,22.97
2022-10-07T19:46:10.198Z,24.33
2022-10-07T19:48:38.650Z,18.53
2022-10-07T19:51:12.093Z,18.20
2022-10-07T19:53:44.509Z,20.70
2022-10-07T19:56:21.311Z,22.13
2022-10-07T19:58:49.433Z,22.20
2022-10-07T20:01:18.207Z,21.27
2022-10-07T20:03:45.736Z,20.67
2022-10-07T20:06:13.004Z,23.33
2022-10-07T20:08:41.165Z,23.10
2022-10-07T20:11:08.677Z,20.13
2022-10-07T20:13:36.482Z,20.80
2022-10-07T20:16:08.529Z,26.43
2022-10-07T20:18:36.712Z,21.87
2022-10-07T20:21:11.167Z,21.43
2022-10-07T20:23:40.210Z,20.10
2022-10-07T20:26:08.615Z,23.97
2022-10-07T20:28:37.714Z,17.97
2022-10-07T20:31:05.804Z,22.70
2022-10-07T20:33:43.119Z,13.87
2022-10-07T20:36:10.950Z,15.80
2022-10-07T20:38:57.284Z,12.33
2022-10-07T20:41:44.277Z,11.70
2022-10-07T20:44:12.239Z,12.10
2022-10-07T20:46:39.951Z,27.53
2022-10-07T20:49:21.085Z,11.37
2022-10-07T20:51:55.737Z,9.13
2022-10-07T20:54:23.815Z,8.80
2022-10-07T20:56:54.672Z,10.70
2022-10-07T20:59:21.944Z,11.87
2022-10-07T21:01:49.047Z,14.47
2022-10-07T21:04:16.295Z,16.93
2022-10-07T21:06:43.780Z,21.43
2022-10-07T21:09:11.323Z,22.47
2022-10-07T21:11:38.847Z,31.13
2022-10-07T21:14:05.967Z,21.90
2022-10-07T21:16:35.202Z,24.60
2022-10-07T21:19:02.517Z,27.40
2022-10-07T21:21:29.609Z,29.83
2022-10-07T21:23:56.768Z,22.43
2022-10-07T21:26:23.860Z,24.07
2022-10-07T21:28:50.981Z,21.53
2022-10-07T21:31:19.618Z,29.30
2022-10-07T21:33:48.812Z,25.73
2022-10-07T21:36:17.056Z,25.23
2022-10-07T21:38:44.823Z,18.27
2022-10-07T21:41:13.405Z,19.87
2022-10-07T21:43:41.935Z,28.83
2022-10-07T21:46:09.460Z,29.93
2022-10-07T21:48:36.677Z,27.23
2022-10-07T21:51:09.349Z,24.70
2022-10-07T21:53:37.139Z,24.53
2022-10-07T21:56:07.751Z,17.77
2022-10-07T21:58:35.829Z,17.97
2022-10-07T22:01:03.994Z,20.40
2022-10-07T22:03:31.182Z,22.57
2022-10-07T22:06:05.279Z,18.60
2022-10-07T22:08:35.394Z,21.47
2022-10-07T22:11:02.559Z,20.47
2022-10-07T22:13:29.859Z,23.13
2022-10-07T22:15:57.015Z,19.07
2022-10-07T22:18:24.224Z,23.80
2022-10-07T22:20:51.383Z,21.93
2022-10-07T22:23:19.073Z,27.23
2022-10-07T22:25:46.162Z,18.03
2022-10-07T22:28:13.318Z,22.37
2022-10-07T22:30:41.406Z,20.30
2022-10-07T22:33:11.198Z,22.03
2022-10-07T22:35:41.609Z,18.80
2022-10-07T22:38:08.702Z,19.27
2022-10-07T22:40:38.970Z,17.73
2022-10-07T22:43:06.415Z,18.17
2022-10-07T22:45:33.752Z,23.80
2022-10-07T22:48:00.896Z,24.90
2022-10-07T22:50:28.067Z,19.00
2022-10-07T22:52:56.828Z,14.03
2022-10-07T22:55:23.979Z,17.90
2022-10-07T22:57:53.943Z,19.20
2022-10-07T23:00:22.225Z,19.77
2022-10-07T23:02:49.707Z,13.40
2022-10-07T23:05:17.250Z,15.27
2022-10-07T23:07:44.315Z,17.40
2022-10-07T23:10:11.392Z,13.87
2022-10-07T23:12:38.480Z,12.43
2022-10-07T23:15:05.840Z,15.27
2022-10-07T23:17:32.902Z,17.63
2022-10-07T23:20:00.029Z,16.13
2022-10-07T23:22:27.329Z,13.47
2022-10-07T23:24:54.403Z,8.90
2022-10-07T23:27:21.511Z,11.93
2022-10-07T23:29:48.606Z,12.70
2022-10-07T23:32:15.693Z,13.37
2022-10-07T23:34:42.764Z,11.07
2022-10-07T23:37:09.936Z,16.37
2022-10-07T23:39:37.106Z,12.40
2022-10-07T23:42:04.244Z,12.73
2022-10-07T23:44:31.323Z,13.27
2022-10-07T23:46:58.388Z,12.70
2022-10-07T23:49:25.512Z,13.20
2022-10-07T23:51:52.613Z,14.17
2022-10-07T23:54:19.780Z,13.47
2022-10-07T23:56:46.957Z,10.33
2022-10-07T23:59:14.260Z,13.63
